La rose des vents
Donnes mto: Semaine 19/06/17 - 25/06/17 (S 25)
Date Horaire Temp. E. Hum. E. P.atmo. Pluie Vent 1mn Direction Ensoleilleme Ev.Tr. Solaire P. de rose Temp au vent Rafales
19/06/2017 00:00 23,4 C 49 % 1020,6 hPa 0,0 l/m 0,0 km/h (0 Bft) N 0,00 h 0,051 mm 0 W/m 12,2 C 23,4 C 0,0 km/h (0 Bft)
19/06/2017 01:00 22,7 C 54 % 1020,6 hPa 0,0 l/m 0,0 km/h (0 Bft) N 0,00 h 0,051 mm 0 W/m 12,9 C 22,7 C 0,0 km/h (0 Bft)
19/06/2017 02:00 22,4 C 57 % 1020,6 hPa 0,0 l/m 0,0 km/h (0 Bft) N 0,00 h 0,051 mm 0 W/m 13,5 C 22,4 C 0,0 km/h (0 Bft)
19/06/2017 03:00 22,8 C 56 % 1020,7 hPa 0,0 l/m 0,0 km/h (0 Bft) N 0,00 h 0,051 mm 0 W/m 13,7 C 22,8 C 0,0 km/h (0 Bft)
19/06/2017 04:00 22,4 C 59 % 1020,7 hPa 0,0 l/m 0,0 km/h (0 Bft) N 0,00 h 0,051 mm 0 W/m 14,0 C 22,4 C 0,0 km/h (0 Bft)
19/06/2017 05:00 22,0 C 62 % 1021,0 hPa 0,0 l/m 0,1 km/h (0 Bft) E-SE 0,00 h 0,051 mm 7 W/m 14,2 C 22,0 C 0,4 km/h (0 Bft)
19/06/2017 06:00 20,8 C 66 % 1021,6 hPa 0,0 l/m 0,0 km/h (0 Bft) N 0,03 h 0,000 mm 21 W/m 14,2 C 20,8 C 0,1 km/h (0 Bft)
19/06/2017 07:00 21,3 C 64 % 1021,9 hPa 0,0 l/m 0,0 km/h (0 Bft) N 0,00 h 0,025 mm 36 W/m 14,2 C 21,3 C 0,0 km/h (0 Bft)
19/06/2017 08:00 23,6 C 53 % 1022,3 hPa 0,0 l/m 0,1 km/h (0 Bft) E-NE 0,57 h 0,025 mm 265 W/m 13,5 C 23,6 C 0,8 km/h (0 Bft)
19/06/2017 09:00 26,9 C 45 % 1022,3 hPa 0,0 l/m 1,8 km/h (1 Bft) E 1,00 h 0,178 mm 541 W/m 14,0 C 26,9 C 5,0 km/h (1 Bft)
19/06/2017 10:00 28,4 C 39 % 1022,3 hPa 0,0 l/m 2,7 km/h (1 Bft) E 1,00 h 0,381 mm 699 W/m 13,0 C 28,4 C 7,3 km/h (2 Bft)
19/06/2017 11:00 28,9 C 36 % 1022,2 hPa 0,0 l/m 4,8 km/h (1 Bft) E 1,00 h 0,483 mm 821 W/m 12,1 C 28,9 C 10,3 km/h (2 Bft)
19/06/2017 12:00 29,3 C 37 % 1022,2 hPa 0,0 l/m 3,9 km/h (1 Bft) E 1,00 h 0,584 mm 897 W/m 13,1 C 29,3 C 9,5 km/h (2 Bft)
19/06/2017 13:00 29,1 C 38 % 1022,0 hPa 0,0 l/m 2,5 km/h (1 Bft) E 1,00 h 0,635 mm 924 W/m 13,4 C 29,1 C 7,0 km/h (2 Bft)
19/06/2017 14:00 29,5 C 37 % 1021,5 hPa 0,0 l/m 2,7 km/h (1 Bft) E 1,00 h 0,635 mm 898 W/m 13,5 C 29,5 C 7,0 km/h (2 Bft)
19/06/2017 15:00 29,6 C 37 % 1021,2 hPa 0,0 l/m 2,5 km/h (1 Bft) E 1,00 h 0,635 mm 808 W/m 13,3 C 29,6 C 7,1 km/h (2 Bft)
19/06/2017 16:00 29,4 C 34 % 1020,8 hPa 0,0 l/m 2,6 km/h (1 Bft) E 1,00 h 0,559 mm 675 W/m 11,9 C 29,4 C 6,9 km/h (2 Bft)
19/06/2017 17:00 29,8 C 33 % 1020,5 hPa 0,0 l/m 2,3 km/h (1 Bft) E 1,00 h 0,483 mm 521 W/m 11,6 C 29,8 C 5,3 km/h (1 Bft)
19/06/2017 18:00 29,3 C 32 % 1020,2 hPa 0,0 l/m 1,9 km/h (1 Bft) E 1,00 h 0,381 mm 351 W/m 10,6 C 29,3 C 4,8 km/h (1 Bft)
19/06/2017 19:00 28,3 C 33 % 1020,0 hPa 0,0 l/m 0,4 km/h (0 Bft) E 0,82 h 0,254 mm 171 W/m 10,6 C 28,3 C 1,4 km/h (1 Bft)
19/06/2017 20:00 26,8 C 40 % 1019,8 hPa 0,0 l/m 0,0 km/h (0 Bft) N 0,00 h 0,127 mm 33 W/m 11,8 C 26,8 C 0,0 km/h (0 Bft)
19/06/2017 21:00 24,9 C 46 % 1019,7 hPa 0,0 l/m 0,0 km/h (0 Bft) N 0,02 h 0,025 mm 7 W/m 12,6 C 24,9 C 0,0 km/h (0 Bft)
19/06/2017 22:00 23,1 C 48 % 1020,0 hPa 0,0 l/m 0,0 km/h (0 Bft) N 0,00 h 0,025 mm 0 W/m 11,5 C 23,1 C 0,1 km/h (0 Bft)
19/06/2017 23:00 22,3 C 51 % 1020,1 hPa 0,0 l/m 0,0 km/h (0 Bft) N 0,00 h 0,051 mm 0 W/m 11,7 C 22,3 C 0,1 km/h (0 Bft)
20/06/2017 00:00 22,1 C 51 % 1020,2 hPa 0,0 l/m 0,0 km/h (0 Bft) N 0,00 h 0,051 mm 0 W/m 11,3 C 22,1 C 0,0 km/h (0 Bft)
20/06/2017 01:00 21,7 C 52 % 1020,1 hPa 0,0 l/m 0,0 km/h (0 Bft) N 0,00 h 0,051 mm 0 W/m 11,4 C 21,7 C 0,0 km/h (0 Bft)
20/06/2017 02:00 21,5 C 53 % 1019,9 hPa 0,0 l/m 0,0 km/h (0 Bft) N 0,00 h 0,051 mm 0 W/m 11,5 C 21,5 C 0,0 km/h (0 Bft)
20/06/2017 03:00 21,2 C 54 % 1019,5 hPa 0,0 l/m 0,0 km/h (0 Bft) N 0,00 h 0,051 mm 0 W/m 11,6 C 21,2 C 0,0 km/h (0 Bft)
20/06/2017 04:00 20,9 C 55 % 1019,3 hPa 0,0 l/m 0,0 km/h (0 Bft) N 0,00 h 0,051 mm 0 W/m 11,5 C 20,9 C 0,0 km/h (0 Bft)
20/06/2017 05:00 20,8 C 56 % 1019,2 hPa 0,0 l/m 0,0 km/h (0 Bft) N 0,00 h 0,051 mm 6 W/m 11,6 C 20,8 C 0,0 km/h (0 Bft)
20/06/2017 06:00 21,0 C 56 % 1019,2 hPa 0,0 l/m 0,0 km/h (0 Bft) N 0,05 h 0,000 mm 21 W/m 11,8 C 21,0 C 0,0 km/h (0 Bft)
20/06/2017 07:00 21,9 C 57 % 1019,2 hPa 0,0 l/m 0,0 km/h (0 Bft) N 0,00 h 0,025 mm 40 W/m 12,8 C 21,9 C 0,0 km/h (0 Bft)
20/06/2017 08:00 23,8 C 51 % 1019,6 hPa 0,0 l/m 0,1 km/h (0 Bft) E-SE 0,53 h 0,025 mm 259 W/m 13,0 C 23,8 C 0,6 km/h (0 Bft)
20/06/2017 09:00 26,9 C 44 % 1019,7 hPa 0,0 l/m 1,7 km/h (1 Bft) E-SE 1,00 h 0,178 mm 533 W/m 13,4 C 26,9 C 4,7 km/h (1 Bft)
20/06/2017 10:00 28,6 C 43 % 1019,6 hPa 0,0 l/m 4,2 km/h (1 Bft) E 1,00 h 0,356 mm 684 W/m 14,9 C 28,6 C 7,9 km/h (2 Bft)
20/06/2017 11:00 29,0 C 44 % 1019,6 hPa 0,0 l/m 4,6 km/h (1 Bft) E 1,00 h 0,483 mm 803 W/m 15,6 C 29,0 C 8,9 km/h (2 Bft)
20/06/2017 12:00 30,2 C 43 % 1019,6 hPa 0,0 l/m 5,6 km/h (1 Bft) E 1,00 h 0,584 mm 871 W/m 16,1 C 30,2 C 11,0 km/h (2 Bft)
20/06/2017 13:00 31,1 C 44 % 1019,2 hPa 0,0 l/m 5,0 km/h (1 Bft) E 1,00 h 0,635 mm 896 W/m 17,2 C 31,1 C 11,6 km/h (2 Bft)
20/06/2017 14:00 30,2 C 55 % 1019,0 hPa 0,0 l/m 4,5 km/h (1 Bft) E 1,00 h 0,660 mm 867 W/m 20,2 C 30,2 C 11,1 km/h (2 Bft)
20/06/2017 15:00 29,6 C 58 % 1018,7 hPa 0,0 l/m 4,9 km/h (1 Bft) E 1,00 h 0,610 mm 783 W/m 20,5 C 29,6 C 10,4 km/h (2 Bft)
20/06/2017 16:00 28,8 C 62 % 1018,4 hPa 0,0 l/m 4,7 km/h (1 Bft) E 1,00 h 0,559 mm 667 W/m 20,9 C 28,8 C 10,0 km/h (2 Bft)
20/06/2017 17:00 28,2 C 64 % 1018,0 hPa 0,0 l/m 2,6 km/h (1 Bft) E 1,00 h 0,457 mm 518 W/m 20,8 C 28,2 C 6,5 km/h (2 Bft)
20/06/2017 18:00 27,4 C 65 % 1017,7 hPa 0,0 l/m 1,4 km/h (1 Bft) E 1,00 h 0,356 mm 349 W/m 20,2 C 27,4 C 4,1 km/h (1 Bft)
20/06/2017 19:00 25,7 C 67 % 1017,5 hPa 0,0 l/m 1,3 km/h (1 Bft) E 0,82 h 0,229 mm 171 W/m 19,2 C 25,7 C 3,5 km/h (1 Bft)
20/06/2017 20:00 24,0 C 73 % 1017,4 hPa 0,0 l/m 0,0 km/h (0 Bft) N 0,00 h 0,127 mm 31 W/m 18,8 C 24,0 C 0,2 km/h (0 Bft)
20/06/2017 21:00 22,7 C 76 % 1017,1 hPa 0,0 l/m 0,0 km/h (0 Bft) N 0,00 h 0,025 mm 6 W/m 18,4 C 22,7 C 0,0 km/h (0 Bft)
20/06/2017 22:00 21,6 C 80 % 1017,1 hPa 0,0 l/m 0,0 km/h (0 Bft) N 0,00 h 0,000 mm 0 W/m 18,1 C 21,6 C 0,0 km/h (0 Bft)
20/06/2017 23:00 20,7 C 83 % 1017,0 hPa 0,0 l/m 0,0 km/h (0 Bft) N 0,00 h 0,025 mm 0 W/m 17,7 C 20,7 C 0,0 km/h (0 Bft)
21/06/2017 00:00 20,0 C 87 % 1016,9 hPa 0,0 l/m 0,0 km/h (0 Bft) N 0,00 h 0,025 mm 0 W/m 17,7 C 20,0 C 0,0 km/h (0 Bft)
21/06/2017 01:00 19,8 C 90 % 1016,9 hPa 0,0 l/m 0,0 km/h (0 Bft) N 0,00 h 0,025 mm 0 W/m 18,1 C 19,8 C 0,0 km/h (0 Bft)
21/06/2017 02:00 19,8 C 89 % 1016,8 hPa 0,0 l/m 0,0 km/h (0 Bft) N 0,00 h 0,000 mm 0 W/m 17,8 C 19,8 C 0,0 km/h (0 Bft)
21/06/2017 03:00 19,8 C 89 % 1016,9 hPa 0,0 l/m 0,0 km/h (0 Bft) N 0,00 h 0,000 mm 0 W/m 17,9 C 19,8 C 0,0 km/h (0 Bft)
21/06/2017 04:00 19,8 C 90 % 1016,6 hPa 0,0 l/m 0,0 km/h (0 Bft) N 0,00 h 0,000 mm 0 W/m 18,0 C 19,8 C 0,0 km/h (0 Bft)
21/06/2017 05:00 19,7 C 90 % 1016,5 hPa 0,0 l/m 0,0 km/h (0 Bft) N 0,00 h 0,000 mm 7 W/m 18,1 C 19,7 C 0,1 km/h (0 Bft)
21/06/2017 06:00 19,4 C 88 % 1016,5 hPa 0,0 l/m 0,0 km/h (0 Bft) N 0,07 h 0,000 mm 25 W/m 17,2 C 19,4 C 0,0 km/h (0 Bft)
21/06/2017 07:00 20,2 C 87 % 1016,7 hPa 0,0 l/m 0,0 km/h (0 Bft) N 0,00 h 0,025 mm 55 W/m 18,0 C 20,2 C 0,1 km/h (0 Bft)
21/06/2017 08:00 22,3 C 80 % 1017,0 hPa 0,0 l/m 0,7 km/h (0 Bft) E 0,57 h 0,025 mm 249 W/m 18,6 C 22,3 C 2,2 km/h (1 Bft)
21/06/2017 09:00 25,2 C 71 % 1017,3 hPa 0,0 l/m 2,2 km/h (1 Bft) E 0,98 h 0,152 mm 484 W/m 19,5 C 25,2 C 5,4 km/h (1 Bft)
21/06/2017 10:00 26,1 C 72 % 1017,2 hPa 0,0 l/m 4,4 km/h (1 Bft) E 0,57 h 0,305 mm 564 W/m 20,6 C 26,1 C 9,3 km/h (2 Bft)
21/06/2017 11:00 27,2 C 70 % 1017,5 hPa 0,0 l/m 4,9 km/h (1 Bft) E 0,73 h 0,381 mm 727 W/m 21,1 C 27,2 C 10,7 km/h (2 Bft)
21/06/2017 12:00 28,0 C 66 % 1017,6 hPa 0,0 l/m 4,5 km/h (1 Bft) E 0,90 h 0,483 mm 847 W/m 20,9 C 28,0 C 9,9 km/h (2 Bft)
21/06/2017 13:00 28,4 C 64 % 1017,4 hPa 0,0 l/m 3,2 km/h (1 Bft) E 0,92 h 0,559 mm 728 W/m 20,9 C 28,4 C 9,2 km/h (2 Bft)
21/06/2017 14:00 27,4 C 67 % 1017,1 hPa 0,0 l/m 2,9 km/h (1 Bft) E 0,75 h 0,508 mm 527 W/m 20,7 C 27,4 C 7,6 km/h (2 Bft)
21/06/2017 15:00 27,0 C 68 % 1017,1 hPa 0,0 l/m 1,6 km/h (1 Bft) E-SE 0,28 h 0,356 mm 409 W/m 20,6 C 27,0 C 5,1 km/h (1 Bft)
21/06/2017 16:00 25,2 C 73 % 1017,1 hPa 0,0 l/m 0,3 km/h (0 Bft) E-SE 0,00 h 0,279 mm 128 W/m 20,1 C 25,2 C 1,6 km/h (1 Bft)
21/06/2017 17:00 24,2 C 76 % 1016,5 hPa 0,0 l/m 0,0 km/h (0 Bft) N 0,00 h 0,076 mm 83 W/m 19,8 C 24,2 C 0,2 km/h (0 Bft)
21/06/2017 18:00 24,2 C 78 % 1016,6 hPa 0,0 l/m 0,0 km/h (0 Bft) E-SE 0,05 h 0,051 mm 125 W/m 20,1 C 24,2 C 0,4 km/h (0 Bft)
21/06/2017 19:00 24,2 C 78 % 1016,5 hPa 0,0 l/m 0,0 km/h (0 Bft) N 0,00 h 0,076 mm 71 W/m 20,0 C 24,2 C 0,1 km/h (0 Bft)
21/06/2017 20:00 23,6 C 81 % 1016,4 hPa 0,0 l/m 0,0 km/h (0 Bft) N 0,00 h 0,051 mm 22 W/m 20,0 C 23,6 C 0,0 km/h (0 Bft)
21/06/2017 21:00 22,8 C 83 % 1016,4 hPa 0,0 l/m 0,0 km/h (0 Bft) N 0,00 h 0,025 mm 6 W/m 19,7 C 22,8 C 0,1 km/h (0 Bft)
21/06/2017 22:00 22,1 C 86 % 1016,7 hPa 0,0 l/m 0,0 km/h (0 Bft) N 0,00 h 0,000 mm 0 W/m 19,6 C 22,1 C 0,0 km/h (0 Bft)
21/06/2017 23:00 21,6 C 88 % 1017,0 hPa 0,0 l/m 0,0 km/h (0 Bft) N 0,00 h 0,025 mm 0 W/m 19,5 C 21,6 C 0,0 km/h (0 Bft)
22/06/2017 00:00 21,4 C 89 % 1017,5 hPa 0,0 l/m 0,0 km/h (0 Bft) N 0,00 h 0,000 mm 0 W/m 19,4 C 21,4 C 0,0 km/h (0 Bft)
22/06/2017 01:00 21,2 C 90 % 1017,5 hPa 0,0 l/m 0,0 km/h (0 Bft) N 0,00 h 0,000 mm 0 W/m 19,4 C 21,2 C 0,0 km/h (0 Bft)
22/06/2017 02:00 21,2 C 92 % 1017,3 hPa 0,0 l/m 0,0 km/h (0 Bft) N 0,00 h 0,000 mm 0 W/m 19,8 C 21,2 C 0,0 km/h (0 Bft)
22/06/2017 03:00 21,5 C 91 % 1017,2 hPa 0,0 l/m 0,0 km/h (0 Bft) N 0,00 h 0,000 mm 0 W/m 19,9 C 21,5 C 0,0 km/h (0 Bft)
22/06/2017 04:00 21,8 C 90 % 1017,5 hPa 0,0 l/m 0,0 km/h (0 Bft) N 0,00 h 0,000 mm 0 W/m 20,1 C 21,8 C 0,0 km/h (0 Bft)
22/06/2017 05:00 21,8 C 91 % 1017,7 hPa 0,0 l/m 0,0 km/h (0 Bft) N 0,00 h 0,000 mm 5 W/m 20,2 C 21,8 C 0,0 km/h (0 Bft)
22/06/2017 06:00 21,6 C 90 % 1018,1 hPa 0,0 l/m 0,0 km/h (0 Bft) N 0,00 h 0,000 mm 28 W/m 19,9 C 21,6 C 0,0 km/h (0 Bft)
22/06/2017 07:00 21,7 C 86 % 1018,2 hPa 0,0 l/m 0,0 km/h (0 Bft) N 0,00 h 0,025 mm 50 W/m 19,2 C 21,7 C 0,1 km/h (0 Bft)
22/06/2017 08:00 23,1 C 82 % 1018,3 hPa 0,0 l/m 0,1 km/h (0 Bft) E-SE 0,57 h 0,025 mm 266 W/m 19,9 C 23,1 C 0,6 km/h (0 Bft)
22/06/2017 09:00 26,1 C 70 % 1018,5 hPa 0,0 l/m 1,0 km/h (0 Bft) E-SE 1,00 h 0,152 mm 539 W/m 20,3 C 26,1 C 3,3 km/h (1 Bft)
22/06/2017 10:00 27,8 C 64 % 1018,5 hPa 0,0 l/m 2,4 km/h (1 Bft) E 1,00 h 0,356 mm 667 W/m 20,3 C 27,8 C 6,1 km/h (2 Bft)
22/06/2017 11:00 28,7 C 63 % 1018,6 hPa 0,0 l/m 4,2 km/h (1 Bft) E 1,00 h 0,457 mm 794 W/m 20,9 C 28,7 C 9,1 km/h (2 Bft)
22/06/2017 12:00 29,3 C 62 % 1018,8 hPa 0,0 l/m 4,5 km/h (1 Bft) E 1,00 h 0,533 mm 866 W/m 21,2 C 29,3 C 9,6 km/h (2 Bft)
22/06/2017 13:00 29,1 C 62 % 1018,8 hPa 0,0 l/m 4,7 km/h (1 Bft) E 0,97 h 0,610 mm 869 W/m 21,0 C 29,1 C 9,9 km/h (2 Bft)
22/06/2017 14:00 29,0 C 62 % 1018,6 hPa 0,0 l/m 4,7 km/h (1 Bft) E 0,95 h 0,610 mm 874 W/m 21,1 C 29,0 C 9,8 km/h (2 Bft)
22/06/2017 15:00 27,1 C 68 % 1018,4 hPa 0,0 l/m 1,7 km/h (1 Bft) E 0,00 h 0,559 mm 200 W/m 20,6 C 27,1 C 5,5 km/h (1 Bft)
22/06/2017 16:00 27,0 C 70 % 1018,4 hPa 0,0 l/m 1,3 km/h (1 Bft) E 0,57 h 0,152 mm 480 W/m 20,9 C 27,0 C 4,2 km/h (1 Bft)
22/06/2017 17:00 27,0 C 73 % 1018,0 hPa 0,0 l/m 1,3 km/h (1 Bft) E 0,00 h 0,305 mm 166 W/m 21,6 C 27,0 C 3,2 km/h (1 Bft)
22/06/2017 18:00 26,0 C 75 % 1017,9 hPa 0,0 l/m 0,5 km/h (0 Bft) E 0,00 h 0,127 mm 138 W/m 21,3 C 26,0 C 2,1 km/h (1 Bft)
22/06/2017 19:00 25,2 C 81 % 1017,6 hPa 0,0 l/m 0,3 km/h (0 Bft) E-SE 0,00 h 0,102 mm 68 W/m 21,7 C 25,2 C 1,6 km/h (1 Bft)
22/06/2017 20:00 24,5 C 84 % 1017,3 hPa 0,0 l/m 0,0 km/h (0 Bft) N 0,00 h 0,051 mm 35 W/m 21,5 C 24,5 C 0,0 km/h (0 Bft)
22/06/2017 21:00 23,7 C 85 % 1017,3 hPa 0,0 l/m 0,0 km/h (0 Bft) N 0,00 h 0,025 mm 8 W/m 21,0 C 23,7 C 0,0 km/h (0 Bft)
22/06/2017 22:00 22,8 C 88 % 1017,4 hPa 0,0 l/m 0,0 km/h (0 Bft) N 0,00 h 0,000 mm 0 W/m 20,7 C 22,8 C 0,0 km/h (0 Bft)
22/06/2017 23:00 22,2 C 90 % 1017,5 hPa 0,0 l/m 0,0 km/h (0 Bft) N 0,00 h 0,025 mm 0 W/m 20,5 C 22,2 C 0,0 km/h (0 Bft)
23/06/2017 00:00 21,7 C 92 % 1018,0 hPa 0,0 l/m 0,0 km/h (0 Bft) N 0,00 h 0,000 mm 0 W/m 20,4 C 21,7 C 0,0 km/h (0 Bft)
23/06/2017 01:00 21,4 C 93 % 1017,9 hPa 0,0 l/m 0,0 km/h (0 Bft) N 0,00 h 0,000 mm 0 W/m 20,3 C 21,4 C 0,0 km/h (0 Bft)
23/06/2017 02:00 21,4 C 95 % 1017,5 hPa 0,0 l/m 0,0 km/h (0 Bft) N 0,00 h 0,000 mm 0 W/m 20,5 C 21,4 C 0,0 km/h (0 Bft)
23/06/2017 03:00 21,5 C 95 % 1017,3 hPa 0,0 l/m 0,0 km/h (0 Bft) N 0,00 h 0,000 mm 0 W/m 20,7 C 21,5 C 0,0 km/h (0 Bft)
23/06/2017 04:00 21,7 C 94 % 1017,1 hPa 0,0 l/m 0,0 km/h (0 Bft) N 0,00 h 0,000 mm 0 W/m 20,7 C 21,7 C 0,0 km/h (0 Bft)
23/06/2017 05:00 21,6 C 94 % 1017,5 hPa 0,0 l/m 0,0 km/h (0 Bft) N 0,00 h 0,000 mm 6 W/m 20,6 C 21,6 C 0,0 km/h (0 Bft)
23/06/2017 06:00 21,7 C 94 % 1017,8 hPa 0,0 l/m 0,0 km/h (0 Bft) N 0,00 h 0,000 mm 19 W/m 20,7 C 21,7 C 0,0 km/h (0 Bft)
23/06/2017 07:00 22,1 C 93 % 1018,2 hPa 0,0 l/m 0,0 km/h (0 Bft) N 0,00 h 0,000 mm 34 W/m 21,0 C 22,1 C 0,0 km/h (0 Bft)
23/06/2017 08:00 22,8 C 90 % 1018,6 hPa 0,0 l/m 0,0 km/h (0 Bft) N 0,00 h 0,025 mm 84 W/m 21,1 C 22,8 C 0,1 km/h (0 Bft)
23/06/2017 09:00 24,0 C 85 % 1018,7 hPa 0,0 l/m 0,0 km/h (0 Bft) N 0,00 h 0,051 mm 213 W/m 21,3 C 24,0 C 0,1 km/h (0 Bft)
23/06/2017 10:00 25,5 C 79 % 1018,8 hPa 0,0 l/m 1,0 km/h (0 Bft) E-SE 0,00 h 0,127 mm 241 W/m 21,6 C 25,5 C 2,1 km/h (1 Bft)
23/06/2017 11:00 25,9 C 79 % 1019,1 hPa 0,0 l/m 1,7 km/h (1 Bft) E-SE 0,00 h 0,152 mm 278 W/m 22,0 C 25,9 C 4,1 km/h (1 Bft)
23/06/2017 12:00 27,1 C 75 % 1018,9 hPa 0,0 l/m 1,2 km/h (1 Bft) E-SE 0,00 h 0,178 mm 353 W/m 22,3 C 27,1 C 3,7 km/h (1 Bft)
23/06/2017 13:00 27,3 C 73 % 1018,6 hPa 0,0 l/m 2,4 km/h (1 Bft) E-SE 0,00 h 0,229 mm 338 W/m 22,1 C 27,3 C 5,4 km/h (1 Bft)
23/06/2017 14:00 27,8 C 72 % 1018,5 hPa 0,0 l/m 3,4 km/h (1 Bft) E-SE 0,53 h 0,229 mm 572 W/m 22,3 C 27,8 C 7,3 km/h (2 Bft)
23/06/2017 15:00 28,2 C 69 % 1018,2 hPa 0,0 l/m 2,7 km/h (1 Bft) E 0,42 h 0,381 mm 406 W/m 22,0 C 28,2 C 6,5 km/h (2 Bft)
23/06/2017 16:00 27,7 C 72 % 1017,9 hPa 0,0 l/m 2,3 km/h (1 Bft) E-SE 0,00 h 0,279 mm 272 W/m 22,3 C 27,7 C 5,2 km/h (1 Bft)
23/06/2017 17:00 27,3 C 75 % 1017,4 hPa 0,0 l/m 1,2 km/h (1 Bft) E-SE 0,00 h 0,203 mm 239 W/m 22,5 C 27,3 C 3,5 km/h (1 Bft)
23/06/2017 18:00 25,6 C 81 % 1017,4 hPa 0,0 l/m 0,1 km/h (0 Bft) E-SE 0,00 h 0,152 mm 56 W/m 22,2 C 25,6 C 0,8 km/h (0 Bft)
23/06/2017 19:00 24,9 C 85 % 1017,1 hPa 0,0 l/m 0,0 km/h (0 Bft) N 0,00 h 0,051 mm 40 W/m 22,2 C 24,9 C 0,2 km/h (0 Bft)
23/06/2017 20:00 24,6 C 87 % 1017,3 hPa 0,0 l/m 0,0 km/h (0 Bft) N 0,00 h 0,025 mm 19 W/m 22,2 C 24,6 C 0,1 km/h (0 Bft)
23/06/2017 21:00 24,0 C 88 % 1017,0 hPa 0,0 l/m 0,0 km/h (0 Bft) N 0,00 h 0,025 mm 5 W/m 21,9 C 24,0 C 0,0 km/h (0 Bft)
23/06/2017 22:00 23,5 C 89 % 1017,4 hPa 0,0 l/m 0,0 km/h (0 Bft) N 0,00 h 0,000 mm 0 W/m 21,7 C 23,5 C 0,0 km/h (0 Bft)
23/06/2017 23:00 23,4 C 90 % 1017,6 hPa 0,0 l/m 0,0 km/h (0 Bft) N 0,00 h 0,000 mm 0 W/m 21,6 C 23,4 C 0,0 km/h (0 Bft)
24/06/2017 00:00 23,3 C 90 % 1017,5 hPa 0,0 l/m 0,0 km/h (0 Bft) N 0,00 h 0,000 mm 0 W/m 21,6 C 23,3 C 0,0 km/h (0 Bft)
24/06/2017 01:00 23,2 C 91 % 1017,5 hPa 0,0 l/m 0,0 km/h (0 Bft) N 0,00 h 0,000 mm 0 W/m 21,7 C 23,2 C 0,0 km/h (0 Bft)
24/06/2017 02:00 23,1 C 91 % 1017,4 hPa 0,0 l/m 0,0 km/h (0 Bft) N 0,00 h 0,000 mm 0 W/m 21,5 C 23,1 C 0,0 km/h (0 Bft)
24/06/2017 03:00 23,0 C 91 % 1016,9 hPa 0,0 l/m 0,0 km/h (0 Bft) N 0,00 h 0,000 mm 0 W/m 21,5 C 23,0 C 0,0 km/h (0 Bft)
24/06/2017 04:00 23,0 C 93 % 1016,9 hPa 0,0 l/m 0,0 km/h (0 Bft) N 0,00 h 0,000 mm 0 W/m 21,7 C 23,0 C 0,1 km/h (0 Bft)
24/06/2017 05:00 22,8 C 93 % 1016,9 hPa 0,0 l/m 0,0 km/h (0 Bft) N 0,00 h 0,000 mm 5 W/m 21,6 C 22,8 C 0,0 km/h (0 Bft)
24/06/2017 06:00 22,8 C 93 % 1017,0 hPa 0,0 l/m 0,0 km/h (0 Bft) N 0,00 h 0,000 mm 16 W/m 21,6 C 22,8 C 0,0 km/h (0 Bft)
24/06/2017 07:00 23,1 C 92 % 1017,3 hPa 0,0 l/m 0,0 km/h (0 Bft) N 0,00 h 0,000 mm 45 W/m 21,7 C 23,1 C 0,1 km/h (0 Bft)
24/06/2017 08:00 23,7 C 91 % 1017,5 hPa 0,0 l/m 0,0 km/h (0 Bft) E-SE 0,00 h 0,025 mm 106 W/m 22,0 C 23,7 C 0,3 km/h (0 Bft)
24/06/2017 09:00 24,7 C 86 % 1017,4 hPa 0,0 l/m 0,1 km/h (0 Bft) E-SE 0,00 h 0,076 mm 213 W/m 22,3 C 24,7 C 0,9 km/h (0 Bft)
24/06/2017 10:00 26,0 C 79 % 1017,2 hPa 0,0 l/m 0,9 km/h (0 Bft) E-SE 0,00 h 0,127 mm 270 W/m 22,1 C 26,0 C 3,3 km/h (1 Bft)
24/06/2017 11:00 26,9 C 75 % 1017,1 hPa 0,0 l/m 1,8 km/h (1 Bft) E-SE 0,20 h 0,178 mm 335 W/m 22,0 C 26,9 C 4,7 km/h (1 Bft)
24/06/2017 12:00 26,8 C 74 % 1016,9 hPa 0,0 l/m 2,6 km/h (1 Bft) E-SE 0,00 h 0,229 mm 331 W/m 21,8 C 26,8 C 5,4 km/h (1 Bft)
24/06/2017 13:00 26,9 C 73 % 1016,8 hPa 0,0 l/m 3,2 km/h (1 Bft) E-SE 0,00 h 0,229 mm 325 W/m 21,7 C 26,9 C 6,3 km/h (2 Bft)
24/06/2017 14:00 27,3 C 74 % 1016,4 hPa 0,0 l/m 1,7 km/h (1 Bft) E-SE 0,05 h 0,229 mm 329 W/m 22,1 C 27,3 C 4,8 km/h (1 Bft)
24/06/2017 15:00 27,4 C 75 % 1016,3 hPa 0,0 l/m 2,6 km/h (1 Bft) E 0,00 h 0,229 mm 330 W/m 22,5 C 27,4 C 5,9 km/h (2 Bft)
24/06/2017 16:00 26,1 C 81 % 1016,0 hPa 0,0 l/m 0,5 km/h (0 Bft) E 0,00 h 0,229 mm 67 W/m 22,5 C 26,1 C 1,6 km/h (1 Bft)
24/06/2017 17:00 25,3 C 84 % 1015,8 hPa 0,0 l/m 0,0 km/h (0 Bft) N 0,00 h 0,051 mm 63 W/m 22,4 C 25,3 C 0,0 km/h (0 Bft)
24/06/2017 18:00 25,1 C 85 % 1015,3 hPa 0,0 l/m 0,0 km/h (0 Bft) N 0,00 h 0,051 mm 37 W/m 22,4 C 25,1 C 0,0 km/h (0 Bft)
24/06/2017 19:00 25,4 C 83 % 1014,9 hPa 0,0 l/m 0,1 km/h (0 Bft) E 0,13 h 0,025 mm 122 W/m 22,4 C 25,4 C 0,3 km/h (0 Bft)
24/06/2017 20:00 25,4 C 83 % 1014,8 hPa 0,0 l/m 0,0 km/h (0 Bft) N 0,00 h 0,076 mm 19 W/m 22,2 C 25,4 C 0,1 km/h (0 Bft)
24/06/2017 21:00 24,7 C 85 % 1014,8 hPa 0,0 l/m 0,0 km/h (0 Bft) E 0,00 h 0,025 mm 0 W/m 22,1 C 24,7 C 0,6 km/h (0 Bft)
24/06/2017 22:00 24,2 C 85 % 1015,0 hPa 0,0 l/m 0,0 km/h (0 Bft) N 0,00 h 0,000 mm 0 W/m 21,5 C 24,2 C 0,0 km/h (0 Bft)
24/06/2017 23:00 23,7 C 87 % 1015,3 hPa 0,0 l/m 0,0 km/h (0 Bft) N 0,00 h 0,025 mm 0 W/m 21,4 C 23,7 C 0,2 km/h (0 Bft)
25/06/2017 00:00 23,2 C 90 % 1015,0 hPa 0,0 l/m 0,0 km/h (0 Bft) N 0,00 h 0,025 mm 0 W/m 21,5 C 23,2 C 0,1 km/h (0 Bft)
25/06/2017 01:00 22,7 C 90 % 1014,6 hPa 0,0 l/m 0,0 km/h (0 Bft) N 0,00 h 0,000 mm 0 W/m 21,0 C 22,7 C 0,0 km/h (0 Bft)
25/06/2017 02:00 22,3 C 93 % 1014,4 hPa 0,0 l/m 0,0 km/h (0 Bft) N 0,00 h 0,000 mm 0 W/m 21,2 C 22,3 C 0,0 km/h (0 Bft)
25/06/2017 03:00 22,4 C 95 % 1014,0 hPa 0,0 l/m 0,0 km/h (0 Bft) N 0,00 h 0,000 mm 0 W/m 21,5 C 22,4 C 0,0 km/h (0 Bft)
25/06/2017 04:00 22,3 C 94 % 1013,7 hPa 0,0 l/m 0,0 km/h (0 Bft) N 0,00 h 0,000 mm 0 W/m 21,3 C 22,3 C 0,0 km/h (0 Bft)
25/06/2017 05:00 22,1 C 95 % 1013,4 hPa 0,0 l/m 0,0 km/h (0 Bft) N 0,00 h 0,000 mm 8 W/m 21,3 C 22,1 C 0,0 km/h (0 Bft)
25/06/2017 06:00 21,9 C 95 % 1013,0 hPa 0,0 l/m 0,0 km/h (0 Bft) N 0,38 h 0,000 mm 46 W/m 21,1 C 21,9 C 0,0 km/h (0 Bft)
25/06/2017 07:00 22,5 C 96 % 1012,6 hPa 0,0 l/m 0,0 km/h (0 Bft) N 0,00 h 0,025 mm 103 W/m 21,8 C 22,5 C 0,0 km/h (0 Bft)
25/06/2017 08:00 23,8 C 92 % 1012,3 hPa 0,0 l/m 0,0 km/h (0 Bft) N 0,35 h 0,051 mm 248 W/m 22,3 C 23,8 C 0,3 km/h (0 Bft)
25/06/2017 09:00 26,1 C 81 % 1011,6 hPa 0,0 l/m 1,7 km/h (1 Bft) S 0,87 h 0,152 mm 455 W/m 22,5 C 26,1 C 4,1 km/h (1 Bft)
25/06/2017 10:00 27,9 C 69 % 1011,7 hPa 0,0 l/m 6,7 km/h (2 Bft) SO 0,65 h 0,305 mm 516 W/m 21,6 C 27,9 C 11,9 km/h (2 Bft)
25/06/2017 11:00 29,8 C 59 % 1011,1 hPa 0,0 l/m 2,6 km/h (1 Bft) SO 0,67 h 0,381 mm 623 W/m 20,8 C 29,8 C 6,1 km/h (2 Bft)
25/06/2017 12:00 33,2 C 50 % 1010,7 hPa 0,0 l/m 2,1 km/h (1 Bft) E 1,00 h 0,432 mm 890 W/m 21,5 C 33,2 C 6,2 km/h (2 Bft)
25/06/2017 13:00 33,7 C 51 % 1010,5 hPa 0,0 l/m 2,3 km/h (1 Bft) E 1,00 h 0,635 mm 907 W/m 22,1 C 33,7 C 8,4 km/h (2 Bft)
25/06/2017 14:00 31,8 C 57 % 1010,8 hPa 0,0 l/m 2,1 km/h (1 Bft) N-NE 1,00 h 0,660 mm 883 W/m 22,0 C 31,8 C 8,1 km/h (2 Bft)
25/06/2017 15:00 32,3 C 53 % 1010,5 hPa 0,0 l/m 3,1 km/h (1 Bft) E 1,00 h 0,610 mm 807 W/m 21,3 C 32,3 C 9,3 km/h (2 Bft)
25/06/2017 16:00 31,4 C 57 % 1010,2 hPa 0,0 l/m 3,0 km/h (1 Bft) E 1,00 h 0,584 mm 680 W/m 21,9 C 31,4 C 10,9 km/h (2 Bft)
25/06/2017 17:00 29,7 C 65 % 1010,1 hPa 0,0 l/m 2,8 km/h (1 Bft) E 1,00 h 0,483 mm 525 W/m 22,3 C 29,7 C 10,5 km/h (2 Bft)
25/06/2017 18:00 28,6 C 68 % 1010,1 hPa 0,0 l/m 1,9 km/h (1 Bft) E 1,00 h 0,356 mm 354 W/m 22,1 C 28,6 C 6,7 km/h (2 Bft)
25/06/2017 19:00 26,7 C 77 % 1010,5 hPa 0,0 l/m 1,3 km/h (1 Bft) E 0,75 h 0,254 mm 178 W/m 22,3 C 26,7 C 4,3 km/h (1 Bft)
25/06/2017 20:00 24,7 C 83 % 1010,8 hPa 0,0 l/m 0,3 km/h (0 Bft) E 0,00 h 0,127 mm 36 W/m 21,6 C 24,7 C 1,9 km/h (1 Bft)
25/06/2017 21:00 23,7 C 88 % 1011,2 hPa 0,0 l/m 0,0 km/h (0 Bft) N 0,00 h 0,025 mm 6 W/m 21,6 C 23,7 C 0,2 km/h (0 Bft)
25/06/2017 22:00 23,4 C 91 % 1011,7 hPa 0,0 l/m 0,0 km/h (0 Bft) N 0,00 h 0,000 mm 0 W/m 21,9 C 23,4 C 0,2 km/h (0 Bft)
25/06/2017 23:00 23,2 C 93 % 1012,1 hPa 0,0 l/m 0,0 km/h (0 Bft) E-SE 0,00 h 0,000 mm 0 W/m 21,9 C 23,2 C 0,2 km/h (0 Bft)
Min-Date _ 21/06/17 19/06/17 25/06/17 - 19/06/17 - - - - 19/06/17 21/06/17 19/06/17
_ Min-Heure 06:19 17:24 17:30 - 00:00 - - - - 18:44 06:19 00:00
Minimum _ 19,3 C 30 % 1010,0 hPa - 0,0 km/h (0 Bft) - - - - 9,7 C 19,3 C 0,0 km/h (0 Bft)
Max-Date _ 25/06/17 25/06/17 19/06/17 19/06/17 25/06/17 - 19/06/17 20/06/17 21/06/17 23/06/17 25/06/17 25/06/17
_ Max-Heure 13:12 06:42 08:30 00:00 10:35 - 06:01 14:00 13:03 17:37 13:12 14:23
Maximum _ 34,9 C 96 % 1022,4 hPa 0,0 l/m 14,5 km/h
SO (3 Bft)
- 0,02 h 0,660 mm 1129 W/m 22,9 C 34,9 C 30,6 km/h
E-SE (5 Bft)
Moyenne _ 24,8 C 73 % 1017,3 hPa #0,0 l/m 1,1 km/h (0 Bft) E #47:42 h #27,989 mm 333 W/m 19,1 C 24,8 C 2,7 km/h (1 Bft)
Roquefort les pins